Time,TemperatureF,DewpointF,PressureIn,WindDirection,WindDirectionDegrees,WindSpeedMPH,WindSpeedGustMPH,Humidity,HourlyPrecipIn,Conditions,Clouds,dailyrainin,SoftwareType,DateUTC
2013-02-03 00:07:00,57.2,55.0,30.16,WNW,299,1.0,9.0,92,0.00,,,0.00,weatherlink.com 1.10,2013-02-03 06:07:00,
2013-02-03 00:22:00,57.6,55.0,30.17,NW,308,6.0,9.0,90,0.00,,,0.00,weatherlink.com 1.10,2013-02-03 06:22:00,
2013-02-03 00:37:00,58.1,55.0,30.17,West,272,0.0,9.0,88,0.00,,,0.00,weatherlink.com 1.10,2013-02-03 06:37:00,
2013-02-03 00:52:00,58.4,55.0,30.18,WSW,256,1.0,8.0,87,0.00,,,0.00,weatherlink.com 1.10,2013-02-03 06:52:00,
2013-02-03 01:07:00,57.4,54.0,30.18,NNW,328,6.0,8.0,87,0.00,,,0.00,weatherlink.com 1.10,2013-02-03 07:07:00,
2013-02-03 01:22:00,56.1,53.0,30.18,NNW,346,4.0,11.0,89,0.00,,,0.00,weatherlink.com 1.10,2013-02-03 07:22:00,
2013-02-03 01:37:00,55.5,53.0,30.18,North,349,8.0,12.0,90,0.00,,,0.00,weatherlink.com 1.10,2013-02-03 07:37:00,
2013-02-03 01:52:00,55.0,52.0,30.18,North,5,9.0,11.0,90,0.00,,,0.00,weatherlink.com 1.10,2013-02-03 07:52:00,
2013-02-03 02:07:00,54.8,52.0,30.18,North,5,8.0,12.0,90,0.00,,,0.00,weatherlink.com 1.10,2013-02-03 08:07:00,
2013-02-03 02:22:00,54.6,52.0,30.18,North,5,4.0,12.0,91,0.00,,,0.00,weatherlink.com 1.10,2013-02-03 08:22:00,
2013-02-03 02:37:00,54.4,52.0,30.18,North,5,9.0,11.0,90,0.00,,,0.00,weatherlink.com 1.10,2013-02-03 08:37:00,
2013-02-03 02:52:00,54.2,51.0,30.18,North,5,4.0,9.0,90,0.00,,,0.00,weatherlink.com 1.10,2013-02-03 08:52:00,
2013-02-03 03:07:00,54.1,51.0,30.18,North,9,1.0,9.0,90,0.00,,,0.00,weatherlink.com 1.10,2013-02-03 09:07:00,
2013-02-03 03:22:00,53.6,51.0,30.18,NNE,15,0.0,8.0,89,0.00,,,0.00,weatherlink.com 1.10,2013-02-03 09:22:00,
2013-02-03 03:37:00,53.3,50.0,30.18,North,10,4.0,8.0,89,0.00,,,0.00,weatherlink.com 1.10,2013-02-03 09:37:00,
2013-02-03 03:52:00,52.8,50.0,30.18,North,11,4.0,8.0,89,0.00,,,0.00,weatherlink.com 1.10,2013-02-03 09:52:00,
2013-02-03 04:07:00,52.3,49.0,30.18,NNE,13,4.0,7.0,89,0.00,,,0.00,weatherlink.com 1.10,2013-02-03 10:07:00,
2013-02-03 04:22:00,51.6,49.0,30.18,NNE,15,3.0,5.0,90,0.00,,,0.00,weatherlink.com 1.10,2013-02-03 10:22:00,
2013-02-03 04:37:00,51.1,49.0,30.18,NNE,15,3.0,5.0,91,0.00,,,0.00,weatherlink.com 1.10,2013-02-03 10:37:00,
2013-02-03 04:52:00,50.8,48.0,30.18,NNE,15,3.0,5.0,91,0.00,,,0.00,weatherlink.com 1.10,2013-02-03 10:52:00,
2013-02-03 05:07:00,50.3,48.0,30.18,NNE,15,0.0,5.0,91,0.00,,,0.00,weatherlink.com 1.10,2013-02-03 11:07:00,
2013-02-03 05:22:00,50.3,48.0,30.19,NNE,15,4.0,5.0,91,0.00,,,0.00,weatherlink.com 1.10,2013-02-03 11:22:00,
2013-02-03 05:37:00,50.3,48.0,30.19,NNE,15,3.0,4.0,90,0.00,,,0.00,weatherlink.com 1.10,2013-02-03 11:37:00,
2013-02-03 05:52:00,50.1,48.0,30.19,NNE,15,3.0,5.0,91,0.00,,,0.00,weatherlink.com 1.10,2013-02-03 11:52:00,
2013-02-03 06:07:00,49.6,47.0,30.20,NNE,15,3.0,6.0,91,0.00,,,0.00,weatherlink.com 1.10,2013-02-03 12:07:00,
2013-02-03 06:22:00,49.3,47.0,30.20,North,10,3.0,6.0,91,0.00,,,0.00,weatherlink.com 1.10,2013-02-03 12:22:00,
2013-02-03 06:37:00,48.8,47.0,30.20,NNE,12,6.0,6.0,92,0.00,,,0.00,weatherlink.com 1.10,2013-02-03 12:37:00,
2013-02-03 06:52:00,48.3,46.0,30.21,NNE,13,4.0,6.0,92,0.00,,,0.00,weatherlink.com 1.10,2013-02-03 12:52:00,
2013-02-03 07:07:00,48.4,46.0,30.21,NNE,13,5.0,6.0,91,0.00,,,0.00,weatherlink.com 1.10,2013-02-03 13:07:00,
2013-02-03 07:23:00,48.8,46.0,30.22,NNE,13,5.0,6.0,90,0.00,,,0.00,weatherlink.com 1.10,2013-02-03 13:23:00,
2013-02-03 07:38:00,49.5,46.0,30.23,NNE,13,4.0,6.0,88,0.00,,,0.00,weatherlink.com 1.10,2013-02-03 13:38:00,
2013-02-03 07:53:00,50.4,46.0,30.23,North,10,3.0,7.0,85,0.00,,,0.00,weatherlink.com 1.10,2013-02-03 13:53:00,
2013-02-03 08:08:00,51.4,46.0,30.23,NNE,15,2.0,6.0,82,0.00,,,0.00,weatherlink.com 1.10,2013-02-03 14:08:00,
2013-02-03 08:23:00,52.7,45.0,30.23,NNE,15,2.0,6.0,76,0.00,,,0.00,weatherlink.com 1.10,2013-02-03 14:23:00,
2013-02-03 08:38:00,54.2,45.0,30.24,NNE,15,0.0,3.0,72,0.00,,,0.00,weatherlink.com 1.10,2013-02-03 14:38:00,
2013-02-03 08:53:00,55.1,45.0,30.24,SE,128,1.0,3.0,70,0.00,,,0.00,weatherlink.com 1.10,2013-02-03 14:53:00,
2013-02-03 09:08:00,55.1,46.0,30.24,SE,140,0.0,0.0,72,0.00,,,0.00,weatherlink.com 1.10,2013-02-03 15:08:00,
2013-02-03 09:23:00,55.0,46.0,30.24,SE,140,0.0,0.0,72,0.00,,,0.00,weatherlink.com 1.10,2013-02-03 15:23:00,
2013-02-03 09:38:00,55.4,45.0,30.24,SE,140,0.0,0.0,69,0.00,,,0.00,weatherlink.com 1.10,2013-02-03 15:38:00,
2013-02-03 09:53:00,55.8,45.0,30.25,SE,140,0.0,0.0,68,0.00,,,0.00,weatherlink.com 1.10,2013-02-03 15:53:00,
2013-02-03 10:08:00,55.8,46.0,30.25,South,173,0.0,4.0,69,0.00,,,0.00,weatherlink.com 1.10,2013-02-03 16:08:00,
2013-02-03 10:23:00,56.0,46.0,30.24,South,173,1.0,4.0,70,0.00,,,0.00,weatherlink.com 1.10,2013-02-03 16:23:00,
2013-02-03 10:38:00,56.5,46.0,30.24,South,173,0.0,1.0,68,0.00,,,0.00,weatherlink.com 1.10,2013-02-03 16:38:00,
2013-02-03 10:53:00,56.9,46.0,30.24,SW,221,0.0,4.0,67,0.00,,,0.00,weatherlink.com 1.10,2013-02-03 16:53:00,
2013-02-03 11:08:00,57.3,46.0,30.23,SW,221,3.0,5.0,65,0.00,,,0.00,weatherlink.com 1.10,2013-02-03 17:08:00,
2013-02-03 11:23:00,57.0,46.0,30.22,SSW,202,2.0,5.0,68,0.00,,,0.00,weatherlink.com 1.10,2013-02-03 17:23:00,
2013-02-03 11:38:00,57.5,47.0,30.21,SSW,213,4.0,6.0,68,0.00,,,0.00,weatherlink.com 1.10,2013-02-03 17:38:00,
2013-02-03 11:53:00,57.9,47.0,30.20,SSW,203,3.0,6.0,67,0.00,,,0.00,weatherlink.com 1.10,2013-02-03 17:53:00,
2013-02-03 12:08:00,57.9,48.0,30.20,SSW,210,4.0,7.0,70,0.00,,,0.00,weatherlink.com 1.10,2013-02-03 18:08:00,
2013-02-03 12:23:00,59.2,47.0,30.19,SW,215,4.0,7.0,65,0.00,,,0.00,weatherlink.com 1.10,2013-02-03 18:23:00,
2013-02-03 12:38:00,59.2,48.0,30.18,SSW,209,7.0,10.0,66,0.00,,,0.00,weatherlink.com 1.10,2013-02-03 18:38:00,
2013-02-03 12:53:00,58.8,49.0,30.17,SW,214,11.0,12.0,70,0.00,,,0.00,weatherlink.com 1.10,2013-02-03 18:53:00,
2013-02-03 13:08:00,59.1,49.0,30.16,SW,221,6.0,10.0,69,0.00,,,0.00,weatherlink.com 1.10,2013-02-03 19:08:00,
2013-02-03 13:23:00,59.1,49.0,30.16,SW,215,9.0,11.0,70,0.00,,,0.00,weatherlink.com 1.10,2013-02-03 19:23:00,
2013-02-03 13:38:00,59.4,49.0,30.15,SW,219,7.0,11.0,69,0.00,,,0.00,weatherlink.com 1.10,2013-02-03 19:38:00,
2013-02-03 13:53:00,59.5,50.0,30.15,SW,232,6.0,14.0,71,0.00,,,0.00,weatherlink.com 1.10,2013-02-03 19:53:00,
2013-02-03 14:08:00,59.9,50.0,30.14,SW,228,8.0,11.0,70,0.00,,,0.00,weatherlink.com 1.10,2013-02-03 20:08:00,
2013-02-03 14:23:00,60.2,50.0,30.14,WSW,253,10.0,13.0,69,0.00,,,0.00,weatherlink.com 1.10,2013-02-03 20:23:00,
2013-02-03 14:38:00,60.2,50.0,30.13,SW,227,9.0,14.0,70,0.00,,,0.00,weatherlink.com 1.10,2013-02-03 20:38:00,
2013-02-03 14:53:00,60.4,49.0,30.13,SSW,211,7.0,13.0,67,0.00,,,0.00,weatherlink.com 1.10,2013-02-03 20:53:00,
2013-02-03 15:08:00,60.7,50.0,30.13,SW,234,9.0,13.0,67,0.00,,,0.00,weatherlink.com 1.10,2013-02-03 21:08:00,
2013-02-03 15:24:00,60.4,50.0,30.12,WSW,239,12.0,12.0,69,0.00,,,0.00,weatherlink.com 1.10,2013-02-03 21:24:00,
2013-02-03 15:39:00,60.4,50.0,30.12,WSW,239,11.0,15.0,68,0.00,,,0.00,weatherlink.com 1.10,2013-02-03 21:39:00,
2013-02-03 15:54:00,60.6,51.0,30.12,SW,232,11.0,13.0,70,0.00,,,0.00,weatherlink.com 1.10,2013-02-03 21:54:00,
2013-02-03 16:09:00,60.4,51.0,30.12,WSW,241,8.0,12.0,72,0.00,,,0.00,weatherlink.com 1.10,2013-02-03 22:09:00,
2013-02-03 16:24:00,60.6,52.0,30.12,WSW,243,8.0,13.0,73,0.00,,,0.00,weatherlink.com 1.10,2013-02-03 22:24:00,
2013-02-03 16:39:00,60.4,52.0,30.12,SW,235,11.0,14.0,74,0.00,,,0.00,weatherlink.com 1.10,2013-02-03 22:39:00,
2013-02-03 16:54:00,60.5,53.0,30.12,WSW,240,9.0,11.0,77,0.00,,,0.00,weatherlink.com 1.10,2013-02-03 22:54:00,
2013-02-03 17:09:00,60.8,52.0,30.12,SW,229,10.0,12.0,72,0.00,,,0.00,weatherlink.com 1.10,2013-02-03 23:09:00,
2013-02-03 17:24:00,60.5,52.0,30.11,SW,229,11.0,11.0,73,0.00,,,0.00,weatherlink.com 1.10,2013-02-03 23:24:00,
2013-02-03 17:39:00,60.3,52.0,30.11,WSW,240,9.0,12.0,74,0.00,,,0.00,weatherlink.com 1.10,2013-02-03 23:39:00,
2013-02-03 17:54:00,60.2,52.0,30.11,WSW,248,5.0,9.0,75,0.00,,,0.00,weatherlink.com 1.10,2013-02-03 23:54:00,
2013-02-03 18:09:00,60.2,52.0,30.11,WSW,240,6.0,9.0,75,0.00,,,0.00,weatherlink.com 1.10,2013-02-04 00:09:00,
2013-02-03 18:24:00,60.1,52.0,30.11,WSW,240,6.0,9.0,75,0.00,,,0.00,weatherlink.com 1.10,2013-02-04 00:24:00,
2013-02-03 18:39:00,59.6,51.0,30.11,WNW,286,5.0,9.0,74,0.00,,,0.00,weatherlink.com 1.10,2013-02-04 00:39:00,
2013-02-03 18:54:00,58.7,48.0,30.11,West,281,5.0,9.0,67,0.00,,,0.00,weatherlink.com 1.10,2013-02-04 00:54:00,
2013-02-03 19:09:00,58.3,46.0,30.12,NW,311,0.0,6.0,65,0.00,,,0.00,weatherlink.com 1.10,2013-02-04 01:09:00,
2013-02-03 19:24:00,58.0,44.0,30.11,NW,321,0.0,4.0,60,0.00,,,0.00,weatherlink.com 1.10,2013-02-04 01:24:00,
2013-02-03 19:39:00,57.8,43.0,30.11,NW,325,1.0,4.0,59,0.00,,,0.00,weatherlink.com 1.10,2013-02-04 01:39:00,
2013-02-03 19:54:00,58.0,43.0,30.11,West,280,0.0,5.0,57,0.00,,,0.00,weatherlink.com 1.10,2013-02-04 01:54:00,
2013-02-03 20:09:00,57.4,43.0,30.11,NW,320,1.0,3.0,58,0.00,,,0.00,weatherlink.com 1.10,2013-02-04 02:09:00,
2013-02-03 20:24:00,57.0,42.0,30.11,WNW,301,0.0,3.0,58,0.00,,,0.00,weatherlink.com 1.10,2013-02-04 02:24:00,
2013-02-03 20:39:00,56.8,42.0,30.12,WNW,298,0.0,1.0,58,0.00,,,0.00,weatherlink.com 1.10,2013-02-04 02:39:00,
2013-02-03 20:54:00,56.6,42.0,30.12,NW,325,0.0,2.0,58,0.00,,,0.00,weatherlink.com 1.10,2013-02-04 02:54:00,
2013-02-03 21:09:00,56.3,41.0,30.12,NW,313,0.0,1.0,57,0.00,,,0.00,weatherlink.com 1.10,2013-02-04 03:09:00,
2013-02-03 21:24:00,55.9,41.0,30.12,NW,313,0.0,0.0,57,0.00,,,0.00,weatherlink.com 1.10,2013-02-04 03:24:00,
2013-02-03 21:39:00,55.9,41.0,30.12,NW,313,0.0,0.0,57,0.00,,,0.00,weatherlink.com 1.10,2013-02-04 03:39:00,
2013-02-03 21:54:00,55.3,41.0,30.12,NNW,327,0.0,0.0,59,0.00,,,0.00,weatherlink.com 1.10,2013-02-04 03:54:00,
2013-02-03 22:09:00,54.9,41.0,30.12,NW,325,0.0,0.0,61,0.00,,,0.00,weatherlink.com 1.10,2013-02-04 04:09:00,
2013-02-03 22:24:00,54.6,41.0,30.12,NNW,338,0.0,1.0,60,0.00,,,0.00,weatherlink.com 1.10,2013-02-04 04:24:00,
2013-02-03 22:39:00,54.6,40.0,30.11,NNW,327,0.0,2.0,59,0.00,,,0.00,weatherlink.com 1.10,2013-02-04 04:39:00,
2013-02-03 22:54:00,54.6,42.0,30.11,NNW,342,0.0,3.0,62,0.00,,,0.00,weatherlink.com 1.10,2013-02-04 04:54:00,
2013-02-03 23:09:00,54.2,44.0,30.11,NNW,346,4.0,5.0,68,0.00,,,0.00,weatherlink.com 1.10,2013-02-04 05:09:00,
2013-02-03 23:24:00,51.2,45.0,30.10,North,5,3.0,6.0,78,0.00,,,0.00,weatherlink.com 1.10,2013-02-04 05:24:00,
2013-02-03 23:39:00,50.5,44.0,30.10,North,360,3.0,4.0,79,0.00,,,0.00,weatherlink.com 1.10,2013-02-04 05:39:00,
2013-02-03 23:54:00,49.9,43.0,30.10,North,11,4.0,7.0,76,0.00,,,0.00,weatherlink.com 1.10,2013-02-04 05:54:00,